createdAt,value
2023-01-21T00:00:54.151Z,98635.03
2023-01-21T00:03:41.566Z,98635.88
2023-01-21T00:06:15.063Z,98638.59
2023-01-21T00:08:50.357Z,98646.53
2023-01-21T00:11:21.681Z,98641.69
2023-01-21T00:13:53.381Z,98648.16
2023-01-21T00:16:40.696Z,98650.44
2023-01-21T00:19:24.113Z,98650.66
2023-01-21T00:22:01.680Z,98656.59
2023-01-21T00:24:38.344Z,98649.38
2023-01-21T00:29:54.848Z,98662.50
2023-01-21T00:32:44.111Z,98658.03
2023-01-21T00:35:18.893Z,98655.94
2023-01-21T00:37:55.233Z,98657.09
2023-01-21T00:40:40.053Z,98661.13
2023-01-21T00:43:16.678Z,98661.13
2023-01-21T00:45:51.723Z,98658.97
2023-01-21T00:51:25.546Z,98663.25
2023-01-21T00:59:57.575Z,98665.13
2023-01-21T01:02:24.984Z,98677.72
2023-01-21T01:04:52.377Z,98673.19
2023-01-21T01:07:19.712Z,98668.56
2023-01-21T01:09:47.133Z,98668.66
2023-01-21T01:12:14.574Z,98682.22
2023-01-21T01:14:41.960Z,98677.34
2023-01-21T01:17:09.426Z,98684.78
2023-01-21T01:19:36.801Z,98685.16
2023-01-21T01:22:04.163Z,98683.06
2023-01-21T01:24:31.801Z,98682.13
2023-01-21T01:26:59.259Z,98679.16
2023-01-21T01:29:26.727Z,98694.03
2023-01-21T01:31:54.117Z,98704.13
2023-01-21T01:34:21.653Z,98699.03
2023-01-21T01:36:55.143Z,98702.88
2023-01-21T01:39:22.578Z,98695.97
2023-01-21T01:41:50.216Z,98697.25
2023-01-21T01:44:56.221Z,98705.81
2023-01-21T01:47:38.835Z,98710.88
2023-01-21T01:50:06.449Z,98704.94
2023-01-21T01:52:34.101Z,98712.50
2023-01-21T01:55:03.714Z,98713.13
2023-01-21T01:57:39.377Z,98711.38
2023-01-21T02:00:11.209Z,98715.84
2023-01-21T02:02:43.504Z,98712.78
2023-01-21T02:05:11.389Z,98715.06
2023-01-21T02:07:43.819Z,98707.13
2023-01-21T02:10:14.445Z,98713.50
2023-01-21T02:12:44.056Z,98724.56
2023-01-21T02:15:11.794Z,98720.69
2023-01-21T02:18:17.379Z,98726.25
2023-01-21T02:21:41.666Z,98731.38
2023-01-21T02:24:42.872Z,98733.09
2023-01-21T02:27:36.382Z,98733.78
2023-01-21T02:30:18.980Z,98741.91
2023-01-21T02:33:23.703Z,98736.75
2023-01-21T02:37:02.459Z,98740.69
2023-01-21T02:39:50.669Z,98745.16
2023-01-21T02:42:41.794Z,98743.63
2023-01-21T02:45:16.598Z,98753.25
2023-01-21T02:48:14.133Z,98761.34
2023-01-21T02:50:50.987Z,98753.22
2023-01-21T02:53:38.683Z,98761.34
2023-01-21T02:56:12.810Z,98758.94
2023-01-21T02:58:45.999Z,98759.06
2023-01-21T03:01:34.837Z,98760.53
2023-01-21T03:04:20.405Z,98763.66
2023-01-21T03:06:49.281Z,98761.59
2023-01-21T03:09:30.349Z,98761.38
2023-01-21T03:12:08.602Z,98761.38
2023-01-21T03:15:20.910Z,98758.91
2023-01-21T03:18:15.228Z,98770.03
2023-01-21T03:20:52.579Z,98775.34
2023-01-21T03:23:30.602Z,98769.91
2023-01-21T03:26:00.352Z,98769.81
2023-01-21T03:28:32.859Z,98772.25
2023-01-21T03:31:18.599Z,98773.06
2023-01-21T03:33:48.891Z,98772.06
2023-01-21T03:37:13.754Z,98775.75
2023-01-21T03:40:05.531Z,98786.00
2023-01-21T03:42:32.951Z,98781.94
2023-01-21T03:45:00.671Z,98783.72
2023-01-21T03:47:31.385Z,98778.41
2023-01-21T03:50:12.771Z,98788.91
2023-01-21T03:52:44.862Z,98779.53
2023-01-21T03:55:15.854Z,98783.47
2023-01-21T03:57:43.254Z,98782.97
2023-01-21T04:00:11.329Z,98777.03
2023-01-21T04:02:39.234Z,98780.59
2023-01-21T04:05:06.985Z,98782.25
2023-01-21T04:07:34.390Z,98779.88
2023-01-21T04:10:01.739Z,98777.25
2023-01-21T04:12:29.176Z,98781.44
2023-01-21T04:14:57.137Z,98782.28
2023-01-21T04:17:24.567Z,98796.72
2023-01-21T04:19:52.154Z,98799.22
2023-01-21T04:22:20.621Z,98799.31
2023-01-21T04:24:48.002Z,98800.16
2023-01-21T04:27:15.367Z,98798.50
2023-01-21T04:29:42.719Z,98799.56
2023-01-21T04:32:10.112Z,98802.25
2023-01-21T04:34:37.463Z,98799.44
2023-01-21T04:37:04.859Z,98794.25
2023-01-21T04:39:32.198Z,98790.59
2023-01-21T04:41:59.600Z,98794.34
2023-01-21T04:44:26.979Z,98807.44
2023-01-21T04:46:54.387Z,98799.75
2023-01-21T04:49:21.725Z,98806.31
2023-01-21T04:51:49.068Z,98810.38
2023-01-21T04:54:16.446Z,98802.25
2023-01-21T04:56:43.782Z,98807.97
2023-01-21T04:59:11.709Z,98809.97
2023-01-21T05:01:39.065Z,98821.09
2023-01-21T05:04:06.380Z,98814.09
2023-01-21T05:06:33.828Z,98820.78
2023-01-21T05:09:01.210Z,98819.53
2023-01-21T05:11:28.730Z,98829.53
2023-01-21T05:13:56.072Z,98828.19
2023-01-21T05:16:23.494Z,98824.72
2023-01-21T05:18:50.804Z,98828.34
2023-01-21T05:21:18.190Z,98842.41
2023-01-21T05:23:45.601Z,98839.59
2023-01-21T05:26:12.930Z,98844.41
2023-01-21T05:28:40.373Z,98845.13
2023-01-21T05:31:07.885Z,98831.66
2023-01-21T05:33:35.906Z,98846.22
2023-01-21T05:36:03.705Z,98846.53
2023-01-21T05:38:31.110Z,98845.88
2023-01-21T05:41:02.717Z,98854.47
2023-01-21T05:43:30.249Z,98852.19
2023-01-21T05:45:57.874Z,98847.72
2023-01-21T05:48:25.360Z,98853.41
2023-01-21T05:50:52.981Z,98856.53
2023-01-21T05:53:20.408Z,98850.63
2023-01-21T05:55:52.738Z,98852.69
2023-01-21T05:58:20.302Z,98862.41
2023-01-21T06:00:48.521Z,98862.94
2023-01-21T06:03:17.476Z,98856.25
2023-01-21T06:05:45.831Z,98859.44
2023-01-21T06:08:13.431Z,98866.94
2023-01-21T06:10:40.817Z,98872.75
2023-01-21T06:13:08.866Z,98870.50
2023-01-21T06:15:36.359Z,98868.81
2023-01-21T06:18:03.810Z,98862.69
2023-01-21T06:20:31.538Z,98871.19
2023-01-21T06:22:59.083Z,98867.16
2023-01-21T06:25:27.138Z,98873.41
2023-01-21T06:27:58.395Z,98878.53
2023-01-21T06:30:26.248Z,98883.00
2023-01-21T06:32:53.783Z,98877.75
2023-01-21T06:35:21.228Z,98869.44
2023-01-21T06:37:48.594Z,98876.69
2023-01-21T06:40:16.683Z,98887.28
2023-01-21T06:42:47.468Z,98888.06
2023-01-21T06:45:15.575Z,98900.69
2023-01-21T06:47:43.747Z,98894.03
2023-01-21T06:50:17.620Z,98903.06
2023-01-21T06:52:47.247Z,98911.97
2023-01-21T06:55:15.929Z,98925.34
2023-01-21T06:57:43.961Z,98926.91
2023-01-21T07:00:12.717Z,98926.25
2023-01-21T07:02:40.134Z,98920.63
2023-01-21T07:05:07.983Z,98917.69
2023-01-21T07:07:35.445Z,98925.09
2023-01-21T07:10:03.162Z,98918.50
2023-01-21T07:12:30.614Z,98928.84
2023-01-21T07:14:57.979Z,98920.38
2023-01-21T07:17:25.345Z,98925.94
2023-01-21T07:19:52.707Z,98934.38
2023-01-21T07:22:20.120Z,98936.41
2023-01-21T07:24:47.722Z,98941.50
2023-01-21T07:27:15.158Z,98939.28
2023-01-21T07:29:42.569Z,98946.25
2023-01-21T07:32:10.018Z,98932.78
2023-01-21T07:34:37.413Z,98942.22
2023-01-21T07:37:04.726Z,98948.50
2023-01-21T07:39:32.095Z,98951.06
2023-01-21T07:41:59.448Z,98952.00
2023-01-21T07:44:27.569Z,98950.53
2023-01-21T07:46:55.036Z,98952.13
2023-01-21T07:49:22.428Z,98960.41
2023-01-21T07:51:49.833Z,98955.03
2023-01-21T07:54:17.261Z,98958.03
2023-01-21T07:56:44.699Z,98953.91
2023-01-21T07:59:13.406Z,98959.75
2023-01-21T08:01:41.058Z,98963.94
2023-01-21T08:04:09.798Z,98956.50
2023-01-21T08:06:41.519Z,98959.25
2023-01-21T08:09:10.055Z,98964.88
2023-01-21T08:11:37.430Z,98962.09
2023-01-21T08:14:05.556Z,98954.19
2023-01-21T08:16:33.015Z,98952.84
2023-01-21T08:19:00.711Z,98952.78
2023-01-21T08:21:28.103Z,98953.47
2023-01-21T08:23:55.515Z,98958.47
2023-01-21T08:26:25.524Z,98957.75
2023-01-21T08:28:56.169Z,98953.50
2023-01-21T08:31:23.703Z,98964.84
2023-01-21T08:33:51.176Z,98956.28
2023-01-21T08:36:18.727Z,98960.66
2023-01-21T08:38:48.560Z,98961.31
2023-01-21T08:41:17.763Z,98964.66
2023-01-21T08:43:45.197Z,98960.66
2023-01-21T08:46:13.202Z,98959.03
2023-01-21T08:48:40.739Z,98964.22
2023-01-21T08:51:16.036Z,98962.31
2023-01-21T08:53:43.446Z,98968.47
2023-01-21T08:56:10.831Z,98965.03
2023-01-21T08:58:41.776Z,98966.97
2023-01-21T09:01:11.246Z,98970.56
2023-01-21T09:03:38.787Z,98970.31
2023-01-21T09:06:08.295Z,98974.34
2023-01-21T09:08:36.554Z,98983.78
2023-01-21T09:11:06.793Z,98986.53
2023-01-21T09:13:37.480Z,98978.94
2023-01-21T09:16:16.813Z,98984.66
2023-01-21T09:18:44.988Z,98978.56
2023-01-21T09:21:13.170Z,98984.75
2023-01-21T09:23:44.433Z,98990.84
2023-01-21T09:26:18.060Z,98987.78
2023-01-21T09:28:51.641Z,98995.69
2023-01-21T09:31:23.915Z,98997.34
2023-01-21T09:33:52.872Z,98996.34
2023-01-21T09:36:22.549Z,98989.66
2023-01-21T09:38:50.531Z,98995.03
2023-01-21T09:41:50.679Z,98994.06
2023-01-21T09:44:43.871Z,98994.56
2023-01-21T09:47:32.043Z,99006.66
2023-01-21T09:50:06.014Z,98995.28
2023-01-21T09:53:00.031Z,99004.06
2023-01-21T09:55:42.003Z,99010.09
2023-01-21T09:58:21.552Z,99005.28
2023-01-21T10:00:59.175Z,99008.09
2023-01-21T10:03:41.005Z,99000.94
2023-01-21T10:06:43.809Z,98992.75
2023-01-21T10:09:38.309Z,98992.88
2023-01-21T10:12:11.945Z,98993.47
2023-01-21T10:14:55.482Z,98993.06
2023-01-21T10:17:29.970Z,99003.25
2023-01-21T10:20:29.376Z,98995.47
2023-01-21T10:22:59.865Z,99003.38
2023-01-21T10:25:34.455Z,99005.84
2023-01-21T10:28:15.079Z,99004.50
2023-01-21T10:30:52.095Z,99009.81
2023-01-21T10:33:27.783Z,99010.13
2023-01-21T10:36:10.203Z,99003.66
2023-01-21T10:39:17.516Z,99000.16
2023-01-21T10:42:14.635Z,99003.25
2023-01-21T10:45:13.843Z,99001.78
2023-01-21T10:47:56.562Z,98996.34
2023-01-21T10:50:48.246Z,98996.47
2023-01-21T10:53:33.524Z,99002.63
2023-01-21T10:56:33.979Z,98999.09
2023-01-21T10:59:13.346Z,98993.44
2023-01-21T11:01:47.905Z,98999.16
2023-01-21T11:04:20.149Z,98995.75
2023-01-21T11:07:01.449Z,98994.63
2023-01-21T11:09:41.288Z,98988.50
2023-01-21T11:12:16.677Z,98983.19
2023-01-21T11:15:05.270Z,98979.47
2023-01-21T11:17:41.734Z,98984.84
2023-01-21T11:20:23.510Z,98977.09
2023-01-21T11:22:51.507Z,98979.63
2023-01-21T11:25:26.618Z,98972.19
2023-01-21T11:27:55.173Z,98966.53
2023-01-21T11:30:50.610Z,98964.28
2023-01-21T11:33:28.217Z,98969.00
2023-01-21T11:35:56.255Z,98965.56
2023-01-21T11:38:35.411Z,98962.47
2023-01-21T11:41:18.133Z,98965.00
2023-01-21T11:43:54.308Z,98965.13
2023-01-21T11:46:37.518Z,98968.53
2023-01-21T11:49:07.866Z,98969.75
2023-01-21T11:51:40.084Z,98962.53
2023-01-21T11:54:14.381Z,98955.81
2023-01-21T11:56:51.712Z,98961.66
2023-01-21T11:59:27.337Z,98963.97
2023-01-21T12:02:18.392Z,98957.38
2023-01-21T12:05:02.138Z,98956.66
2023-01-21T12:07:33.251Z,98950.59
2023-01-21T12:10:13.053Z,98952.66
2023-01-21T12:13:20.331Z,98953.88
2023-01-21T12:16:26.332Z,98949.06
2023-01-21T12:19:18.320Z,98950.66
2023-01-21T12:22:13.945Z,98951.94
2023-01-21T12:25:21.319Z,98943.44
2023-01-21T12:28:28.341Z,98944.06
2023-01-21T12:30:58.506Z,98947.28
2023-01-21T12:33:31.956Z,98946.19
2023-01-21T12:36:04.067Z,98950.47
2023-01-21T12:38:43.378Z,98944.44
2023-01-21T12:41:27.807Z,98952.78
2023-01-21T12:44:24.920Z,98953.47
2023-01-21T12:46:55.157Z,98951.72
2023-01-21T12:49:51.187Z,98957.16
2023-01-21T12:53:05.382Z,98959.69
2023-01-21T12:55:59.265Z,98953.44
2023-01-21T12:58:32.100Z,98942.81
2023-01-21T13:01:06.362Z,98955.56
2023-01-21T13:04:20.845Z,98947.56
2023-01-21T13:06:59.210Z,98949.72
2023-01-21T13:09:38.932Z,98952.09
2023-01-21T13:12:19.131Z,98958.22
2023-01-21T13:14:57.102Z,98952.31
2023-01-21T13:17:31.326Z,98956.16
2023-01-21T13:19:59.269Z,98949.88
2023-01-21T13:22:45.847Z,98950.69
2023-01-21T13:25:42.391Z,98955.38
2023-01-21T13:28:35.593Z,98955.56
2023-01-21T13:31:11.492Z,98947.66
2023-01-21T13:34:07.689Z,98953.28
2023-01-21T13:36:46.696Z,98956.16
2023-01-21T13:39:28.235Z,98956.81
2023-01-21T13:42:26.827Z,98959.97
2023-01-21T13:45:24.646Z,98959.28
2023-01-21T13:48:15.244Z,98969.63
2023-01-21T13:51:10.471Z,98969.63
2023-01-21T13:53:43.733Z,98974.81
2023-01-21T13:56:29.706Z,98971.69
2023-01-21T13:59:05.105Z,98971.91
2023-01-21T14:01:39.126Z,98981.06
2023-01-21T14:04:40.260Z,98973.78
2023-01-21T14:07:28.934Z,98986.19
2023-01-21T14:10:36.956Z,98985.75
2023-01-21T14:13:38.424Z,98980.06
2023-01-21T14:16:30.221Z,98984.84
2023-01-21T14:19:24.727Z,98986.63
2023-01-21T14:22:21.852Z,98993.97
2023-01-21T14:25:07.564Z,98999.63
2023-01-21T14:27:52.529Z,98995.22
2023-01-21T14:30:47.295Z,98994.88
2023-01-21T14:33:20.844Z,99002.09
2023-01-21T14:36:15.801Z,99001.50
2023-01-21T14:39:08.394Z,99009.94
2023-01-21T14:42:01.877Z,99011.25
2023-01-21T14:44:36.342Z,99014.53
2023-01-21T14:47:23.042Z,99015.38
2023-01-21T14:49:52.941Z,99023.03
2023-01-21T14:52:46.493Z,99026.09
2023-01-21T14:55:34.210Z,99022.22
2023-01-21T14:58:02.048Z,99022.06
2023-01-21T15:00:35.688Z,99023.22
2023-01-21T15:03:02.972Z,99019.34
2023-01-21T15:05:35.837Z,99023.19
2023-01-21T15:08:24.137Z,99021.28
2023-01-21T15:11:03.764Z,99022.41
2023-01-21T15:13:34.508Z,99022.34
2023-01-21T15:16:32.819Z,99023.94
2023-01-21T15:19:09.519Z,99024.22
2023-01-21T15:21:43.477Z,99020.56
2023-01-21T15:24:35.515Z,99023.47
2023-01-21T15:27:23.749Z,99029.22
2023-01-21T15:32:53.839Z,99028.25
2023-01-21T15:35:33.570Z,99025.13
2023-01-21T15:38:13.454Z,99031.63
2023-01-21T15:40:44.404Z,99034.88
2023-01-21T15:43:36.679Z,99028.75
2023-01-21T15:46:28.180Z,99029.13
2023-01-21T15:49:14.359Z,99030.94
2023-01-21T15:51:56.794Z,99030.94
2023-01-21T15:54:30.403Z,99030.19
2023-01-21T15:57:26.099Z,99026.38
2023-01-21T16:00:21.831Z,99033.28
2023-01-21T16:03:45.781Z,99034.53
2023-01-21T16:06:29.611Z,99038.31
2023-01-21T16:09:07.524Z,99044.31
2023-01-21T16:12:01.310Z,99045.66
2023-01-21T16:14:55.491Z,99050.25
2023-01-21T16:17:45.580Z,99051.38
2023-01-21T16:20:13.467Z,99048.38
2023-01-21T16:22:44.026Z,99045.22
2023-01-21T16:25:18.374Z,99055.03
2023-01-21T16:27:48.736Z,99057.53
2023-01-21T16:30:27.927Z,99058.91
2023-01-21T16:33:15.772Z,99062.75
2023-01-21T16:35:56.041Z,99061.06
2023-01-21T16:38:31.573Z,99060.81
2023-01-21T16:41:07.520Z,99061.63
2023-01-21T16:46:40.242Z,99059.34
2023-01-21T16:49:14.843Z,99064.94
2023-01-21T16:51:52.274Z,99061.34
2023-01-21T16:54:33.577Z,99061.63
2023-01-21T16:57:20.314Z,99068.66
2023-01-21T16:59:52.842Z,99077.72
2023-01-21T17:02:28.655Z,99071.88
2023-01-21T17:04:58.828Z,99077.69
2023-01-21T17:07:37.413Z,99078.91
2023-01-21T17:10:06.097Z,99081.38
2023-01-21T17:12:36.343Z,99077.88
2023-01-21T17:15:41.722Z,99084.41
2023-01-21T17:18:19.467Z,99082.50
2023-01-21T17:21:15.650Z,99087.50
2023-01-21T17:23:54.787Z,99085.31
2023-01-21T17:26:47.332Z,99084.38
2023-01-21T17:29:35.138Z,99091.16
2023-01-21T17:32:08.225Z,99084.28
2023-01-21T17:34:39.880Z,99086.06
2023-01-21T17:37:48.229Z,99085.75
2023-01-21T17:40:46.068Z,99081.47
2023-01-21T17:43:22.757Z,99085.94
2023-01-21T17:45:51.752Z,99085.59
2023-01-21T17:48:32.309Z,99088.19
2023-01-21T17:51:14.850Z,99086.81
2023-01-21T17:53:46.314Z,99097.31
2023-01-21T17:56:13.881Z,99102.13
2023-01-21T17:58:52.274Z,99094.81
2023-01-21T18:01:21.484Z,99096.00
2023-01-21T18:03:48.897Z,99105.03
2023-01-21T18:06:27.441Z,99100.28
2023-01-21T18:08:56.972Z,99104.44
2023-01-21T18:11:24.657Z,99104.00
2023-01-21T18:13:52.584Z,99108.03
2023-01-21T18:16:20.099Z,99107.47
2023-01-21T18:18:49.360Z,99105.19
2023-01-21T18:21:21.188Z,99105.31
2023-01-21T18:23:49.228Z,99107.03
2023-01-21T18:26:29.109Z,99102.28
2023-01-21T18:28:56.570Z,99099.53
2023-01-21T18:31:24.083Z,99102.59
2023-01-21T18:33:51.663Z,99097.38
2023-01-21T18:36:19.000Z,99093.72
2023-01-21T18:38:46.375Z,99093.50
2023-01-21T18:41:13.786Z,99088.66
2023-01-21T18:43:42.020Z,99100.56
2023-01-21T18:46:16.471Z,99085.91
2023-01-21T18:48:43.980Z,99089.94
2023-01-21T18:51:11.868Z,99089.72
2023-01-21T18:53:39.654Z,99090.69
2023-01-21T18:56:13.193Z,99084.03
2023-01-21T18:58:40.567Z,99078.22
2023-01-21T19:01:21.439Z,99087.38
2023-01-21T19:03:50.659Z,99082.56
2023-01-21T19:06:18.145Z,99077.34
2023-01-21T19:08:46.121Z,99078.09
2023-01-21T19:11:13.958Z,99078.44
2023-01-21T19:13:41.392Z,99072.81
2023-01-21T19:16:17.535Z,99076.78
2023-01-21T19:18:45.393Z,99071.06
2023-01-21T19:21:13.073Z,99076.63
2023-01-21T19:23:40.464Z,99063.53
2023-01-21T19:26:09.843Z,99069.38
2023-01-21T19:28:37.182Z,99070.41
2023-01-21T19:31:04.685Z,99068.81
2023-01-21T19:33:32.270Z,99066.38
2023-01-21T19:36:15.042Z,99070.00
2023-01-21T19:38:44.545Z,99063.47
2023-01-21T19:41:11.921Z,99066.19
2023-01-21T19:43:39.446Z,99066.63
2023-01-21T19:46:11.709Z,99062.06
2023-01-21T19:48:39.754Z,99071.06
2023-01-21T19:51:07.308Z,99063.25
2023-01-21T19:53:34.759Z,99055.41
2023-01-21T19:56:03.983Z,99061.34
2023-01-21T19:58:32.093Z,99071.16
2023-01-21T20:00:59.573Z,99075.56
2023-01-21T20:03:29.031Z,99068.03
2023-01-21T20:06:03.490Z,99068.53
2023-01-21T20:08:31.526Z,99079.88
2023-01-21T20:10:58.983Z,99071.22
2023-01-21T20:13:28.458Z,99079.03
2023-01-21T20:15:55.884Z,99077.28
2023-01-21T20:18:26.064Z,99078.56
2023-01-21T20:20:54.097Z,99078.31
2023-01-21T20:23:23.039Z,99077.88
2023-01-21T20:25:59.985Z,99083.47
2023-01-21T20:28:36.373Z,99077.72
2023-01-21T20:31:06.618Z,99082.69
2023-01-21T20:33:35.099Z,99079.22
2023-01-21T20:36:04.865Z,99079.19
2023-01-21T20:38:34.989Z,99081.44
2023-01-21T20:41:04.753Z,99078.91
2023-01-21T20:43:32.437Z,99072.44
2023-01-21T20:46:05.106Z,99080.00
2023-01-21T20:48:36.293Z,99080.13
2023-01-21T20:51:04.432Z,99084.13
2023-01-21T20:53:31.917Z,99086.22
2023-01-21T20:56:01.037Z,99083.53
2023-01-21T20:58:28.535Z,99080.16
2023-01-21T21:00:56.034Z,99085.16
2023-01-21T21:03:23.441Z,99079.41
2023-01-21T21:05:50.824Z,99081.22
2023-01-21T21:08:21.481Z,99077.28
2023-01-21T21:10:52.918Z,99079.78
2023-01-21T21:13:20.263Z,99081.03
2023-01-21T21:15:48.646Z,99078.56
2023-01-21T21:18:16.045Z,99073.09
2023-01-21T21:20:43.424Z,99074.56
2023-01-21T21:23:16.124Z,99076.97
2023-01-21T21:25:48.162Z,99078.31
2023-01-21T21:28:17.251Z,99067.81
2023-01-21T21:30:44.886Z,99072.50
2023-01-21T21:33:19.497Z,99069.78
2023-01-21T21:35:47.430Z,99072.63
2023-01-21T21:38:21.907Z,99071.75
2023-01-21T21:40:52.965Z,99070.19
2023-01-21T21:43:35.615Z,99053.63
2023-01-21T21:46:28.576Z,99055.72
2023-01-21T21:48:55.532Z,99049.78
2023-01-21T21:51:23.314Z,99052.56
2023-01-21T21:53:51.076Z,99060.50
2023-01-21T21:56:23.491Z,99051.66
2023-01-21T21:58:51.860Z,99046.63
2023-01-21T22:01:22.775Z,99050.59
2023-01-21T22:03:50.919Z,99040.63
2023-01-21T22:06:20.728Z,99041.19
2023-01-21T22:08:48.707Z,99048.81
2023-01-21T22:11:21.065Z,99047.13
2023-01-21T22:13:50.232Z,99035.81
2023-01-21T22:16:23.756Z,99033.94
2023-01-21T22:18:51.891Z,99030.25
2023-01-21T22:21:25.758Z,99032.94
2023-01-21T22:23:53.852Z,99030.59
2023-01-21T22:26:24.800Z,99033.94
2023-01-21T22:28:52.674Z,99018.66
2023-01-21T22:31:28.428Z,99033.91
2023-01-21T22:33:56.650Z,99030.41
2023-01-21T22:36:25.970Z,99028.03
2023-01-21T22:38:53.829Z,99029.66
2023-01-21T22:41:23.329Z,99029.00
2023-01-21T22:43:51.682Z,99030.16
2023-01-21T22:46:26.533Z,99018.19
2023-01-21T22:48:54.468Z,99023.19
2023-01-21T22:51:23.001Z,99018.69
2023-01-21T22:53:51.174Z,99023.31
2023-01-21T22:56:25.355Z,99014.75
2023-01-21T22:58:59.337Z,99014.22
2023-01-21T23:01:31.582Z,99012.47
2023-01-21T23:03:59.298Z,99013.41
2023-01-21T23:06:27.068Z,99017.56
2023-01-21T23:08:54.517Z,99013.91
2023-01-21T23:11:22.102Z,99012.66
2023-01-21T23:13:49.814Z,99009.34
2023-01-21T23:16:18.697Z,99005.16
2023-01-21T23:18:46.253Z,99002.25
2023-01-21T23:21:18.194Z,99004.75
2023-01-21T23:23:45.622Z,98995.56
2023-01-21T23:26:14.086Z,98996.63
2023-01-21T23:28:41.590Z,98989.75
2023-01-21T23:31:13.554Z,98983.59
2023-01-21T23:33:41.595Z,98984.75
2023-01-21T23:36:12.727Z,98989.44
2023-01-21T23:38:41.042Z,98995.06
2023-01-21T23:41:10.572Z,98991.19
2023-01-21T23:43:38.140Z,98988.69
2023-01-21T23:46:08.049Z,98991.84
2023-01-21T23:48:35.464Z,98986.31
2023-01-21T23:51:08.283Z,98989.72
2023-01-21T23:53:35.816Z,98980.97
2023-01-21T23:56:15.744Z,98981.28
2023-01-21T23:58:43.258Z,98978.81
